createdAt,value
2019-04-26T00:00:05.053Z,0.00
2019-04-26T00:01:05.059Z,0.00
2019-04-26T00:02:05.055Z,0.00
2019-04-26T00:03:05.081Z,0.00
2019-04-26T00:04:05.059Z,0.00
2019-04-26T00:05:05.068Z,0.00
2019-04-26T00:06:05.063Z,0.00
2019-04-26T00:07:05.063Z,0.00
2019-04-26T00:08:05.095Z,0.00
2019-04-26T00:09:05.067Z,0.00
2019-04-26T00:10:05.070Z,0.00
2019-04-26T00:11:05.068Z,0.00
2019-04-26T00:12:05.090Z,0.00
2019-04-26T00:13:05.075Z,0.00
2019-04-26T00:14:05.104Z,0.00
2019-04-26T00:15:05.080Z,0.00
2019-04-26T00:16:05.082Z,0.00
2019-04-26T00:17:05.081Z,0.00
2019-04-26T00:18:05.085Z,0.00
2019-04-26T00:19:05.110Z,0.00
2019-04-26T00:20:05.088Z,0.00
2019-04-26T00:21:05.089Z,0.00
2019-04-26T00:22:05.092Z,0.00
2019-04-26T00:23:05.093Z,0.00
2019-04-26T00:24:05.119Z,0.00
2019-04-26T00:25:05.093Z,0.00
2019-04-26T00:26:05.098Z,0.00
2019-04-26T00:27:05.096Z,0.00
2019-04-26T00:28:05.100Z,0.00
2019-04-26T00:29:05.132Z,0.00
2019-04-26T00:30:05.103Z,0.00
2019-04-26T00:31:05.108Z,0.00
2019-04-26T00:32:05.116Z,0.00
2019-04-26T00:33:05.109Z,0.00
2019-04-26T00:34:05.138Z,0.00
2019-04-26T00:35:05.117Z,0.00
2019-04-26T00:36:05.110Z,0.00
2019-04-26T00:37:05.113Z,0.00
2019-04-26T00:38:05.116Z,0.00
2019-04-26T00:39:05.143Z,0.00
2019-04-26T00:40:05.138Z,0.00
2019-04-26T00:41:05.123Z,0.00
2019-04-26T00:42:05.122Z,0.00
2019-04-26T00:43:05.123Z,0.00
2019-04-26T00:44:05.165Z,0.00
2019-04-26T00:45:05.130Z,0.00
2019-04-26T00:46:05.128Z,0.00
2019-04-26T00:47:05.130Z,0.00
2019-04-26T00:48:05.130Z,0.00
2019-04-26T00:49:05.135Z,0.00
2019-04-26T00:50:05.164Z,0.00
2019-04-26T00:51:05.137Z,0.00
2019-04-26T00:52:05.137Z,0.00
2019-04-26T00:53:05.142Z,0.00
2019-04-26T00:54:05.160Z,0.00
2019-04-26T00:55:05.169Z,0.00
2019-04-26T00:56:05.145Z,0.00
2019-04-26T00:57:05.146Z,0.00
2019-04-26T00:58:05.150Z,0.00
2019-04-26T00:59:05.149Z,0.00
2019-04-26T01:00:05.178Z,0.00
2019-04-26T01:01:05.166Z,0.00
2019-04-26T01:02:05.154Z,0.00
2019-04-26T01:03:05.156Z,0.00
2019-04-26T01:04:05.201Z,0.00
2019-04-26T01:05:05.184Z,0.00
2019-04-26T01:06:05.159Z,0.00
2019-04-26T01:07:05.160Z,0.00
2019-04-26T01:08:05.162Z,0.00
2019-04-26T01:09:05.166Z,0.00
2019-04-26T01:10:05.191Z,0.00
2019-04-26T01:11:05.165Z,0.00
2019-04-26T01:12:05.167Z,0.00
2019-04-26T01:13:05.170Z,0.00
2019-04-26T01:14:05.170Z,0.00
2019-04-26T01:15:05.212Z,0.00
2019-04-26T01:16:05.171Z,0.00
2019-04-26T01:17:05.172Z,0.00
2019-04-26T01:18:05.175Z,0.00
2019-04-26T01:19:05.177Z,0.00
2019-04-26T01:20:05.203Z,0.00
2019-04-26T01:21:05.175Z,0.00
2019-04-26T01:22:05.181Z,0.00
2019-04-26T01:23:05.182Z,0.00
2019-04-26T01:24:05.177Z,0.00
2019-04-26T01:25:05.206Z,0.00
2019-04-26T01:26:05.181Z,0.00
2019-04-26T01:27:05.190Z,0.00
2019-04-26T01:28:05.187Z,0.00
2019-04-26T01:29:05.181Z,0.00
2019-04-26T01:30:05.188Z,0.00
2019-04-26T01:31:05.209Z,0.00
2019-04-26T01:32:05.185Z,0.00
2019-04-26T01:33:05.188Z,0.00
2019-04-26T01:34:05.188Z,0.00
2019-04-26T01:35:05.186Z,0.00
2019-04-26T01:36:12.917Z,0.00
2019-04-26T01:37:05.189Z,0.00
2019-04-26T01:38:05.190Z,0.00
2019-04-26T01:39:05.208Z,0.00
2019-04-26T01:40:05.200Z,0.00
2019-04-26T01:41:05.218Z,0.00
2019-04-26T01:42:05.192Z,0.00
2019-04-26T01:43:05.191Z,0.00
2019-04-26T01:44:05.191Z,0.00
2019-04-26T01:45:05.198Z,0.00
2019-04-26T01:46:05.230Z,0.00
2019-04-26T01:47:05.191Z,0.00
2019-04-26T01:48:05.192Z,0.00
2019-04-26T01:49:05.198Z,0.00
2019-04-26T01:50:05.192Z,0.00
2019-04-26T01:51:05.221Z,0.00
2019-04-26T01:52:05.219Z,0.00
2019-04-26T01:53:05.197Z,0.00
2019-04-26T01:54:05.194Z,0.00
2019-04-26T01:55:05.197Z,0.00
2019-04-26T01:56:05.224Z,0.00
2019-04-26T01:57:05.232Z,0.00
2019-04-26T01:58:05.252Z,0.00
2019-04-26T01:59:05.193Z,0.00
2019-04-26T02:00:05.205Z,0.00
2019-04-26T02:01:05.225Z,0.00
2019-04-26T02:02:05.196Z,0.00
2019-04-26T02:03:05.201Z,0.00
2019-04-26T02:04:05.194Z,0.00
2019-04-26T02:05:05.195Z,0.00
2019-04-26T02:06:05.223Z,0.00
2019-04-26T02:07:05.195Z,0.00
2019-04-26T02:08:05.194Z,0.00
2019-04-26T02:09:05.200Z,0.00
2019-04-26T02:10:05.206Z,0.00
2019-04-26T02:11:05.222Z,0.00
2019-04-26T02:12:05.196Z,0.00
2019-04-26T02:13:05.198Z,0.00
2019-04-26T02:14:05.195Z,0.00
2019-04-26T02:15:05.193Z,0.00
2019-04-26T02:16:05.197Z,0.00
2019-04-26T02:17:05.228Z,0.00
2019-04-26T02:18:05.197Z,0.00
2019-04-26T02:19:05.191Z,0.00
2019-04-26T02:20:05.193Z,0.00
2019-04-26T02:21:05.198Z,0.00
2019-04-26T02:22:05.220Z,0.00
2019-04-26T02:23:05.194Z,0.00
2019-04-26T02:24:05.196Z,0.00
2019-04-26T02:25:05.195Z,0.00
2019-04-26T02:26:05.195Z,0.00
2019-04-26T02:27:05.221Z,0.00
2019-04-26T02:28:05.199Z,0.00
2019-04-26T02:29:05.195Z,0.00
2019-04-26T02:30:05.198Z,0.00
2019-04-26T02:31:05.195Z,0.00
2019-04-26T02:32:05.224Z,0.00
2019-04-26T02:33:05.196Z,0.00
2019-04-26T02:34:05.202Z,0.00
2019-04-26T02:35:05.192Z,0.00
2019-04-26T02:36:05.192Z,0.00
2019-04-26T02:37:05.222Z,0.00
2019-04-26T02:38:05.204Z,0.00
2019-04-26T02:39:05.194Z,0.00
2019-04-26T02:40:05.192Z,0.00
2019-04-26T02:41:05.202Z,0.00
2019-04-26T02:42:05.216Z,0.00
2019-04-26T02:43:05.195Z,0.00
2019-04-26T02:44:05.201Z,0.00
2019-04-26T02:45:05.193Z,0.00
2019-04-26T02:46:05.193Z,0.00
2019-04-26T02:47:05.221Z,0.00
2019-04-26T02:48:05.191Z,0.00
2019-04-26T02:49:05.190Z,0.00
2019-04-26T02:50:05.191Z,0.00
2019-04-26T02:51:05.186Z,0.00
2019-04-26T02:52:05.185Z,0.00
2019-04-26T02:53:05.214Z,0.00
2019-04-26T02:54:05.212Z,0.00
2019-04-26T02:55:05.191Z,0.00
2019-04-26T02:56:05.186Z,0.00
2019-04-26T02:57:05.187Z,0.00
2019-04-26T02:58:05.221Z,0.00
2019-04-26T02:59:05.182Z,0.00
2019-04-26T03:00:05.189Z,0.00
2019-04-26T03:01:05.186Z,0.00
2019-04-26T03:02:05.184Z,0.00
2019-04-26T03:03:05.217Z,0.00
2019-04-26T03:04:05.182Z,0.00
2019-04-26T03:05:05.273Z,0.00
2019-04-26T03:06:05.183Z,0.00
2019-04-26T03:07:05.180Z,0.00
2019-04-26T03:08:05.208Z,0.00
2019-04-26T03:09:05.198Z,0.00
2019-04-26T03:10:05.177Z,0.00
2019-04-26T03:11:05.177Z,0.00
2019-04-26T03:12:05.195Z,0.00
2019-04-26T03:13:05.213Z,0.00
2019-04-26T03:14:05.174Z,0.00
2019-04-26T03:15:13.860Z,0.00
2019-04-26T03:16:05.173Z,0.00
2019-04-26T03:17:05.172Z,0.00
2019-04-26T03:18:05.197Z,0.00
2019-04-26T03:19:05.174Z,0.00
2019-04-26T03:20:05.172Z,0.00
2019-04-26T03:21:05.173Z,0.00
2019-04-26T03:22:05.171Z,0.00
2019-04-26T03:23:05.195Z,0.00
2019-04-26T03:24:05.169Z,0.00
2019-04-26T03:25:05.168Z,0.00
2019-04-26T03:26:05.167Z,0.00
2019-04-26T03:27:05.165Z,0.00
2019-04-26T03:28:05.194Z,0.00
2019-04-26T03:29:05.165Z,0.00
2019-04-26T03:30:19.889Z,0.00
2019-04-26T03:31:05.165Z,0.00
2019-04-26T03:32:05.169Z,0.00
2019-04-26T03:33:05.215Z,0.00
2019-04-26T03:34:05.240Z,0.00
2019-04-26T03:35:05.161Z,0.00
2019-04-26T03:36:05.167Z,0.00
2019-04-26T03:37:19.372Z,0.00
2019-04-26T03:38:05.155Z,0.00
2019-04-26T03:39:05.180Z,0.00
2019-04-26T03:40:05.155Z,0.00
2019-04-26T03:41:05.151Z,0.00
2019-04-26T03:42:05.150Z,0.00
2019-04-26T03:43:05.151Z,0.00
2019-04-26T03:44:05.178Z,5.63
2019-04-26T03:45:05.159Z,5.63
2019-04-26T03:46:05.150Z,5.63
2019-04-26T03:47:05.146Z,5.63
2019-04-26T03:48:05.142Z,5.63
2019-04-26T03:49:05.171Z,5.63
2019-04-26T03:50:05.140Z,5.63
2019-04-26T03:51:05.141Z,11.25
2019-04-26T03:52:05.138Z,11.25
2019-04-26T03:53:05.137Z,11.25
2019-04-26T03:54:05.168Z,11.25
2019-04-26T03:55:05.130Z,16.88
2019-04-26T03:56:05.134Z,16.88
2019-04-26T03:57:05.134Z,16.88
2019-04-26T03:58:05.139Z,22.50
2019-04-26T03:59:05.164Z,22.50
2019-04-26T04:00:05.138Z,28.13
2019-04-26T04:01:05.129Z,28.13
2019-04-26T04:02:05.125Z,33.75
2019-04-26T04:03:05.122Z,33.75
2019-04-26T04:04:05.148Z,39.38
2019-04-26T04:05:05.121Z,39.38
2019-04-26T04:06:05.117Z,45.00
2019-04-26T04:07:05.293Z,45.00
2019-04-26T04:08:05.114Z,50.63
2019-04-26T04:09:05.113Z,50.63
2019-04-26T04:10:05.162Z,56.25
2019-04-26T04:11:05.112Z,56.25
2019-04-26T04:12:11.774Z,61.88
2019-04-26T04:13:05.174Z,61.88
2019-04-26T04:14:05.248Z,67.50
2019-04-26T04:15:05.126Z,73.13
2019-04-26T04:16:05.102Z,73.13
2019-04-26T04:17:05.104Z,78.75
2019-04-26T04:18:05.103Z,78.75
2019-04-26T04:19:05.098Z,84.38
2019-04-26T04:20:05.124Z,90.00
2019-04-26T04:21:05.099Z,95.63
2019-04-26T04:22:05.092Z,95.63
2019-04-26T04:23:05.090Z,101.25
2019-04-26T04:24:05.091Z,106.88
2019-04-26T04:25:05.115Z,106.88
2019-04-26T04:26:05.088Z,112.50
2019-04-26T04:27:05.086Z,118.13
2019-04-26T04:28:05.087Z,123.75
2019-04-26T04:29:05.081Z,123.75
2019-04-26T04:30:05.110Z,129.38
2019-04-26T04:31:05.085Z,135.00
2019-04-26T04:32:05.079Z,135.00
2019-04-26T04:33:05.077Z,140.63
2019-04-26T04:34:05.086Z,140.63
2019-04-26T04:35:06.774Z,146.25
2019-04-26T04:36:05.075Z,146.25
2019-04-26T04:37:05.078Z,151.88
2019-04-26T04:38:09.593Z,157.50
2019-04-26T04:39:12.319Z,163.13
2019-04-26T04:40:05.095Z,163.13
2019-04-26T04:41:08.227Z,168.75
2019-04-26T04:42:05.086Z,174.38
2019-04-26T04:43:05.136Z,180.00
2019-04-26T04:44:05.124Z,185.63
2019-04-26T04:45:05.086Z,185.63
2019-04-26T04:46:05.101Z,185.63
2019-04-26T04:47:22.251Z,180.00
2019-04-26T04:48:05.083Z,185.63
2019-04-26T04:49:05.059Z,202.50
2019-04-26T04:50:05.084Z,196.88
2019-04-26T04:51:05.207Z,202.50
2019-04-26T04:52:05.082Z,208.13
2019-04-26T04:53:05.053Z,213.75
2019-04-26T04:54:05.051Z,225.00
2019-04-26T04:55:07.716Z,236.25
2019-04-26T04:56:05.049Z,253.13
2019-04-26T04:57:05.052Z,253.13
2019-04-26T04:58:05.061Z,253.13
2019-04-26T04:59:05.045Z,258.75
2019-04-26T05:00:05.048Z,281.25
2019-04-26T05:01:05.077Z,258.75
2019-04-26T05:02:05.050Z,286.88
2019-04-26T05:03:05.044Z,326.25
2019-04-26T05:04:05.042Z,298.13
2019-04-26T05:05:05.047Z,275.63
2019-04-26T05:06:07.803Z,264.38
2019-04-26T05:07:05.043Z,315.00
2019-04-26T05:08:06.774Z,343.13
2019-04-26T05:09:05.038Z,371.25
2019-04-26T05:10:05.906Z,331.88
2019-04-26T05:11:05.067Z,326.25
2019-04-26T05:12:05.053Z,388.13
2019-04-26T05:13:05.039Z,371.25
2019-04-26T05:14:05.035Z,393.75
2019-04-26T05:15:05.035Z,382.50
2019-04-26T05:16:05.063Z,337.50
2019-04-26T05:17:05.041Z,337.50
2019-04-26T05:18:05.037Z,348.75
2019-04-26T05:19:05.033Z,348.75
2019-04-26T05:20:05.036Z,393.75
2019-04-26T05:21:05.063Z,393.75
2019-04-26T05:22:05.034Z,382.50
2019-04-26T05:23:05.031Z,427.50
2019-04-26T05:24:05.033Z,410.63
2019-04-26T05:25:05.033Z,388.13
2019-04-26T05:26:05.059Z,388.13
2019-04-26T05:27:05.032Z,421.88
2019-04-26T05:28:05.032Z,427.50
2019-04-26T05:29:05.042Z,461.25
2019-04-26T05:30:05.108Z,450.00
2019-04-26T05:31:05.061Z,466.88
2019-04-26T05:32:05.033Z,478.13
2019-04-26T05:33:05.033Z,528.75
2019-04-26T05:34:05.035Z,573.75
2019-04-26T05:35:05.038Z,556.88
2019-04-26T05:36:05.069Z,646.88
2019-04-26T05:37:05.034Z,596.25
2019-04-26T05:38:12.536Z,607.50
2019-04-26T05:39:05.060Z,601.88
2019-04-26T05:40:05.035Z,601.88
2019-04-26T05:41:05.038Z,601.88
2019-04-26T05:42:05.063Z,596.25
2019-04-26T05:43:05.040Z,607.50
2019-04-26T05:44:05.037Z,618.75
2019-04-26T05:45:05.038Z,658.13
2019-04-26T05:46:05.040Z,630.00
2019-04-26T05:47:05.069Z,613.13
2019-04-26T05:48:11.250Z,613.13
2019-04-26T05:49:05.041Z,635.63
2019-04-26T05:50:05.066Z,635.63
2019-04-26T05:51:05.041Z,652.50
2019-04-26T05:52:05.067Z,652.50
2019-04-26T05:53:05.051Z,652.50
2019-04-26T05:54:05.045Z,652.50
2019-04-26T05:55:05.044Z,658.13
2019-04-26T05:56:05.045Z,680.63
2019-04-26T05:57:05.086Z,669.38
2019-04-26T05:58:05.050Z,675.00
2019-04-26T05:59:05.051Z,703.13
2019-04-26T06:00:05.917Z,686.25
2019-04-26T06:01:05.049Z,686.25
2019-04-26T06:02:05.078Z,697.50
2019-04-26T06:03:05.049Z,720.00
2019-04-26T06:04:05.055Z,714.38
2019-04-26T06:05:05.053Z,725.63
2019-04-26T06:06:05.469Z,748.13
2019-04-26T06:07:05.079Z,736.88
2019-04-26T06:08:05.056Z,759.38
2019-04-26T06:09:05.059Z,759.38
2019-04-26T06:10:05.057Z,753.75
2019-04-26T06:11:05.059Z,731.25
2019-04-26T06:12:05.084Z,742.50
2019-04-26T06:13:05.061Z,787.50
2019-04-26T06:14:05.079Z,849.38
2019-04-26T06:15:05.060Z,871.88
2019-04-26T06:16:05.074Z,922.50
2019-04-26T06:17:05.098Z,928.13
2019-04-26T06:18:05.070Z,933.75
2019-04-26T06:19:05.068Z,888.75
2019-04-26T06:20:05.127Z,900.00
2019-04-26T06:21:05.069Z,905.63
2019-04-26T06:22:05.072Z,1068.75
2019-04-26T06:23:05.103Z,1102.50
2019-04-26T06:24:05.078Z,1231.88
2019-04-26T06:25:05.077Z,1040.63
2019-04-26T06:26:05.084Z,973.13
2019-04-26T06:27:13.595Z,956.25
2019-04-26T06:28:05.123Z,956.25
2019-04-26T06:29:05.353Z,1085.63
2019-04-26T06:30:05.088Z,1051.88
2019-04-26T06:31:05.086Z,1316.25
2019-04-26T06:32:05.084Z,1417.50
2019-04-26T06:33:06.237Z,1299.38
2019-04-26T06:34:05.088Z,1209.38
2019-04-26T06:35:05.091Z,1181.25
2019-04-26T06:36:05.131Z,1186.88
2019-04-26T06:37:05.094Z,1310.63
2019-04-26T06:38:05.122Z,1310.63
2019-04-26T06:39:05.101Z,1063.13
2019-04-26T06:40:05.101Z,1136.25
2019-04-26T06:41:05.100Z,1231.88
2019-04-26T06:42:05.305Z,1203.75
2019-04-26T06:43:05.149Z,1175.63
2019-04-26T06:44:05.112Z,1096.88
2019-04-26T06:45:05.116Z,1006.88
2019-04-26T06:46:05.116Z,1254.38
2019-04-26T06:47:05.124Z,1423.13
2019-04-26T06:48:06.078Z,1175.63
2019-04-26T06:49:05.486Z,1434.38
2019-04-26T06:50:05.572Z,1434.38
2019-04-26T06:51:05.125Z,1496.25
2019-04-26T06:52:05.188Z,1518.75
2019-04-26T06:53:06.233Z,1535.63
2019-04-26T06:54:05.577Z,1591.88
2019-04-26T06:55:05.131Z,1288.13
2019-04-26T06:56:05.147Z,1389.38
2019-04-26T06:57:08.852Z,1456.88
2019-04-26T06:58:05.141Z,1220.63
2019-04-26T06:59:05.855Z,1192.50
2019-04-26T07:00:05.149Z,1215.00
2019-04-26T07:01:05.435Z,1513.13
2019-04-26T07:02:06.094Z,1558.13
2019-04-26T07:03:05.683Z,1591.88
2019-04-26T07:04:05.182Z,1485.00
2019-04-26T07:05:05.161Z,1580.63
2019-04-26T07:06:05.167Z,1473.75
2019-04-26T07:07:05.169Z,1518.75
2019-04-26T07:08:05.341Z,1530.00
2019-04-26T07:09:05.414Z,1485.00
2019-04-26T07:10:06.235Z,1344.38
2019-04-26T07:11:05.229Z,1490.63
2019-04-26T07:12:05.231Z,1468.13
2019-04-26T07:13:05.187Z,1468.13
2019-04-26T07:14:05.217Z,1451.25
2019-04-26T07:15:05.835Z,1642.50
2019-04-26T07:16:17.949Z,1749.38
2019-04-26T07:17:05.199Z,1591.88
2019-04-26T07:18:06.334Z,1597.50
2019-04-26T07:19:05.603Z,1580.63
2019-04-26T07:20:06.095Z,1755.00
2019-04-26T07:21:05.260Z,1743.75
2019-04-26T07:22:06.170Z,1856.25
2019-04-26T07:23:05.894Z,2266.88
2019-04-26T07:24:05.564Z,2165.63
2019-04-26T07:25:05.976Z,1923.75
2019-04-26T07:26:05.908Z,2244.38
2019-04-26T07:27:05.311Z,2120.63
2019-04-26T07:28:08.096Z,2098.13
2019-04-26T07:29:05.246Z,2390.63
2019-04-26T07:30:05.326Z,2300.63
2019-04-26T07:31:06.142Z,1980.00
2019-04-26T07:32:05.331Z,2272.50
2019-04-26T07:33:06.226Z,2328.75
2019-04-26T07:34:05.265Z,2041.88
2019-04-26T07:35:05.345Z,2216.25
2019-04-26T07:36:05.580Z,2536.88
2019-04-26T07:37:05.281Z,2075.63
2019-04-26T07:38:05.308Z,2520.00
2019-04-26T07:39:16.686Z,2295.00
2019-04-26T07:40:05.325Z,2705.63
2019-04-26T07:41:05.298Z,2491.88
2019-04-26T07:42:05.303Z,2570.63
2019-04-26T07:43:06.041Z,2655.00
2019-04-26T07:44:05.606Z,2227.50
2019-04-26T07:45:05.609Z,2092.50
2019-04-26T07:46:05.857Z,2030.63
2019-04-26T07:47:05.982Z,2064.38
2019-04-26T07:48:05.328Z,2143.13
2019-04-26T07:49:05.967Z,2165.63
2019-04-26T07:50:05.367Z,2300.63
2019-04-26T07:51:06.402Z,2306.25
2019-04-26T07:52:06.317Z,2508.75
2019-04-26T07:53:05.352Z,2688.75
2019-04-26T07:54:05.360Z,2846.25
2019-04-26T07:55:06.564Z,3256.88
2019-04-26T07:56:05.362Z,3189.38
2019-04-26T07:57:06.605Z,3301.88
2019-04-26T07:58:05.375Z,2705.63
2019-04-26T07:59:06.004Z,2559.38
2019-04-26T08:00:06.505Z,2947.50
2019-04-26T08:01:05.500Z,2255.63
2019-04-26T08:02:06.570Z,3532.50
2019-04-26T08:03:05.517Z,3420.00
2019-04-26T08:04:05.406Z,3054.38
2019-04-26T08:05:05.828Z,2745.00
2019-04-26T08:06:05.803Z,2615.63
2019-04-26T08:07:06.320Z,2565.00
2019-04-26T08:08:06.809Z,2593.13
2019-04-26T08:09:05.971Z,2700.00
2019-04-26T08:10:05.986Z,2902.50
2019-04-26T08:11:06.191Z,2919.38
2019-04-26T08:12:06.094Z,2733.75
2019-04-26T08:13:06.076Z,3273.75
2019-04-26T08:14:06.205Z,2885.63
2019-04-26T08:15:06.092Z,2857.50
2019-04-26T08:16:06.736Z,3262.50
2019-04-26T08:17:06.558Z,3346.88
2019-04-26T08:18:06.585Z,2936.25
2019-04-26T08:19:06.927Z,2761.88
2019-04-26T08:20:09.006Z,3071.25
2019-04-26T08:21:09.937Z,3600.00
2019-04-26T08:22:18.290Z,4230.00
2019-04-26T08:23:08.643Z,3690.00
2019-04-26T08:24:06.183Z,3600.00
2019-04-26T08:25:06.670Z,3780.00
2019-04-26T08:26:06.524Z,2283.75
2019-04-26T08:27:13.799Z,3712.50
2019-04-26T08:28:05.606Z,3920.63
2019-04-26T08:29:06.499Z,3808.13
2019-04-26T08:30:10.273Z,3993.75
2019-04-26T08:31:07.338Z,3656.25
2019-04-26T08:32:05.585Z,3352.50
2019-04-26T08:33:07.799Z,3746.25
2019-04-26T08:34:06.062Z,3785.63
2019-04-26T08:35:08.185Z,4027.50
2019-04-26T08:36:06.245Z,3763.13
2019-04-26T08:37:06.710Z,3684.38
2019-04-26T08:38:07.987Z,3189.38
2019-04-26T08:39:05.957Z,3656.25
2019-04-26T08:40:05.660Z,3903.75
2019-04-26T08:41:07.129Z,3223.13
2019-04-26T08:42:12.126Z,1620.00
2019-04-26T08:43:05.689Z,1783.13
2019-04-26T08:44:06.874Z,1822.50
2019-04-26T08:45:08.882Z,1890.00
2019-04-26T08:46:07.696Z,2801.25
2019-04-26T08:47:06.099Z,2199.38
2019-04-26T08:48:05.745Z,3414.38
2019-04-26T08:49:06.486Z,2958.75
2019-04-26T08:50:09.749Z,2199.38
2019-04-26T08:51:05.775Z,3543.75
2019-04-26T08:52:14.194Z,2553.75
2019-04-26T08:53:05.792Z,2790.00
2019-04-26T08:54:05.808Z,4387.50
2019-04-26T08:55:05.807Z,4573.13
2019-04-26T08:56:05.822Z,3166.88
2019-04-26T08:57:05.857Z,3988.13
2019-04-26T08:58:05.836Z,4145.63
2019-04-26T08:59:05.849Z,2790.00
2019-04-26T09:00:05.858Z,3645.00
2019-04-26T09:01:05.869Z,2008.13
2019-04-26T09:02:05.906Z,2289.38
2019-04-26T09:03:11.592Z,2986.88
2019-04-26T09:04:05.900Z,2677.50
2019-04-26T09:05:05.951Z,4185.00
2019-04-26T09:06:05.917Z,4196.25
2019-04-26T09:07:05.951Z,3723.75
2019-04-26T09:08:05.938Z,3093.75
2019-04-26T09:09:05.946Z,4713.75
2019-04-26T09:10:11.310Z,3009.38
2019-04-26T09:11:05.967Z,2379.38
2019-04-26T09:12:08.415Z,3127.50
2019-04-26T09:13:05.989Z,3076.88
2019-04-26T09:14:06.699Z,4966.88
2019-04-26T09:15:07.080Z,2508.75
2019-04-26T09:16:06.072Z,2514.38
2019-04-26T09:17:06.486Z,4528.13
2019-04-26T09:18:06.907Z,4567.50
2019-04-26T09:19:06.057Z,2306.25
2019-04-26T09:20:07.840Z,2356.88
2019-04-26T09:21:06.067Z,3127.50
2019-04-26T09:22:12.985Z,2193.75
2019-04-26T09:23:06.129Z,2475.00
2019-04-26T09:24:08.256Z,4696.88
2019-04-26T09:25:06.108Z,4747.50
2019-04-26T09:26:08.681Z,4719.38
2019-04-26T09:27:06.167Z,4798.13
2019-04-26T09:28:06.166Z,3583.13
2019-04-26T09:29:06.428Z,2576.25
2019-04-26T09:30:07.364Z,2475.00
2019-04-26T09:31:06.177Z,2300.63
2019-04-26T09:32:06.538Z,3391.88
2019-04-26T09:33:06.260Z,2205.00
2019-04-26T09:34:10.001Z,2306.25
2019-04-26T09:35:06.216Z,2508.75
2019-04-26T09:36:06.225Z,2368.13
2019-04-26T09:37:06.241Z,2525.63
2019-04-26T09:38:06.281Z,2306.25
2019-04-26T09:39:08.281Z,2581.88
2019-04-26T09:40:10.649Z,2435.63
2019-04-26T09:41:06.817Z,2497.50
2019-04-26T09:42:09.610Z,2345.63
2019-04-26T09:43:06.322Z,2368.13
2019-04-26T09:44:06.305Z,2508.75
2019-04-26T09:45:06.313Z,2593.13
2019-04-26T09:46:06.324Z,2356.88
2019-04-26T09:47:06.382Z,2306.25
2019-04-26T09:48:06.370Z,2643.75
2019-04-26T09:49:07.050Z,2610.00
2019-04-26T09:50:06.403Z,2767.50
2019-04-26T09:51:06.367Z,2761.88
2019-04-26T09:52:06.380Z,2581.88
2019-04-26T09:53:06.602Z,2396.25
2019-04-26T09:54:06.422Z,2666.25
2019-04-26T09:55:06.403Z,2323.13
2019-04-26T09:56:06.417Z,2430.00
2019-04-26T09:57:06.435Z,2306.25
2019-04-26T09:58:08.639Z,2334.38
2019-04-26T09:59:06.794Z,2368.13
2019-04-26T10:00:06.452Z,2559.38
2019-04-26T10:01:06.490Z,3020.63
2019-04-26T10:02:06.465Z,2801.25
2019-04-26T10:03:09.496Z,2655.00
2019-04-26T10:04:06.511Z,2750.63
2019-04-26T10:05:08.022Z,2463.75
2019-04-26T10:06:08.152Z,2570.63
2019-04-26T10:07:06.513Z,2396.25
2019-04-26T10:08:08.343Z,2767.50
2019-04-26T10:09:06.558Z,2351.25
2019-04-26T10:10:06.548Z,2469.38
2019-04-26T10:11:09.633Z,2548.13
2019-04-26T10:12:06.567Z,2604.38
2019-04-26T10:13:06.568Z,3262.50
2019-04-26T10:14:06.605Z,2801.25
2019-04-26T10:15:06.594Z,3858.75
2019-04-26T10:16:06.602Z,2739.38
2019-04-26T10:17:06.618Z,2542.50
2019-04-26T10:18:08.123Z,2272.50
2019-04-26T10:19:06.660Z,2958.75
2019-04-26T10:20:06.639Z,2356.88
2019-04-26T10:21:06.658Z,2238.75
2019-04-26T10:22:06.660Z,2514.38
2019-04-26T10:23:06.671Z,2553.75
2019-04-26T10:24:08.347Z,2452.50
2019-04-26T10:25:08.709Z,2835.00
2019-04-26T10:26:06.701Z,3043.13
2019-04-26T10:27:06.713Z,2581.88
2019-04-26T10:28:06.722Z,2441.25
2019-04-26T10:29:06.760Z,2317.50
2019-04-26T10:30:09.164Z,3763.13
2019-04-26T10:31:06.754Z,2086.88
2019-04-26T10:32:06.767Z,1974.38
2019-04-26T10:33:06.777Z,1968.75
2019-04-26T10:34:07.656Z,2098.13
2019-04-26T10:35:06.800Z,1923.75
2019-04-26T10:36:06.808Z,1895.63
2019-04-26T10:37:07.973Z,2002.50
2019-04-26T10:38:06.831Z,3532.50
2019-04-26T10:39:06.863Z,2070.00
2019-04-26T10:40:06.846Z,1918.13
2019-04-26T10:41:06.857Z,2041.88
2019-04-26T10:42:06.866Z,1991.25
2019-04-26T10:43:06.878Z,2013.75
2019-04-26T10:44:06.913Z,2075.63
2019-04-26T10:45:10.482Z,2373.75
2019-04-26T10:46:06.909Z,2216.25
2019-04-26T10:47:06.921Z,2120.63
2019-04-26T10:48:09.575Z,1923.75
2019-04-26T10:49:09.066Z,1929.38
2019-04-26T10:50:06.944Z,2013.75
2019-04-26T10:51:07.711Z,2086.88
2019-04-26T10:52:06.968Z,2491.88
2019-04-26T10:53:07.511Z,2531.25
2019-04-26T10:54:07.713Z,2469.38
2019-04-26T10:55:07.021Z,2188.13
2019-04-26T10:56:07.001Z,2683.13
2019-04-26T10:57:07.013Z,3386.25
2019-04-26T10:58:07.023Z,2176.88
2019-04-26T10:59:09.819Z,3937.50
2019-04-26T11:00:07.072Z,3543.75
2019-04-26T11:01:07.057Z,3459.38
2019-04-26T11:02:07.063Z,4140.00
2019-04-26T11:03:07.072Z,3616.88
2019-04-26T11:04:07.086Z,2981.25
2019-04-26T11:05:07.119Z,2300.63
2019-04-26T11:06:07.107Z,3358.13
2019-04-26T11:07:07.122Z,3993.75
2019-04-26T11:08:07.152Z,4573.13
2019-04-26T11:09:07.146Z,4477.50
2019-04-26T11:10:07.179Z,3735.00
2019-04-26T11:11:07.215Z,3678.75
2019-04-26T11:12:07.900Z,3577.50
2019-04-26T11:13:07.190Z,1912.50
2019-04-26T11:14:07.200Z,1726.88
2019-04-26T11:15:07.238Z,1715.63
2019-04-26T11:16:08.882Z,1755.00
2019-04-26T11:17:07.239Z,1878.75
2019-04-26T11:18:07.273Z,2407.50
2019-04-26T11:19:07.266Z,3577.50
2019-04-26T11:20:10.645Z,2379.38
2019-04-26T11:21:07.286Z,1597.50
2019-04-26T11:22:07.298Z,1485.00
2019-04-26T11:23:08.199Z,1395.00
2019-04-26T11:24:07.330Z,1344.38
2019-04-26T11:25:07.358Z,1361.25
2019-04-26T11:26:07.375Z,1417.50
2019-04-26T11:27:09.562Z,1479.38
2019-04-26T11:28:07.364Z,1541.25
2019-04-26T11:29:07.378Z,1636.88
2019-04-26T11:30:11.694Z,1726.88
2019-04-26T11:31:07.399Z,1771.88
2019-04-26T11:32:07.408Z,1828.13
2019-04-26T11:33:10.859Z,1901.25
2019-04-26T11:34:07.432Z,1985.63
2019-04-26T11:35:07.494Z,1963.13
2019-04-26T11:36:08.705Z,1996.88
2019-04-26T11:37:07.461Z,1935.00
2019-04-26T11:38:07.466Z,1901.25
2019-04-26T11:39:07.571Z,1760.63
2019-04-26T11:40:10.252Z,1783.13
2019-04-26T11:41:07.584Z,1805.63
2019-04-26T11:42:08.038Z,1946.25
2019-04-26T11:43:07.544Z,1811.25
2019-04-26T11:44:07.521Z,1777.50
2019-04-26T11:45:10.723Z,1721.25
2019-04-26T11:46:07.567Z,1648.13
2019-04-26T11:47:07.980Z,1563.75
2019-04-26T11:48:07.557Z,1490.63
2019-04-26T11:49:08.316Z,1451.25
2019-04-26T11:50:07.679Z,1423.13
2019-04-26T11:51:07.609Z,1406.25
2019-04-26T11:52:07.592Z,1378.13
2019-04-26T11:53:10.209Z,1344.38
2019-04-26T11:54:07.609Z,1305.00
2019-04-26T11:55:07.616Z,1321.88
2019-04-26T11:56:07.652Z,1383.75
2019-04-26T11:57:08.285Z,1445.63
2019-04-26T11:58:07.657Z,1479.38
2019-04-26T11:59:07.667Z,1518.75
2019-04-26T12:00:07.660Z,1625.63
2019-04-26T12:01:07.694Z,3960.00
2019-04-26T12:02:07.672Z,1861.88
2019-04-26T12:03:07.678Z,1878.75
2019-04-26T12:04:07.687Z,2025.00
2019-04-26T12:05:07.725Z,2767.50
2019-04-26T12:06:07.731Z,1980.00
2019-04-26T12:07:08.524Z,1839.38
2019-04-26T12:08:07.717Z,1648.13
2019-04-26T12:09:07.727Z,1490.63
2019-04-26T12:10:09.725Z,1383.75
2019-04-26T12:11:17.887Z,1305.00
2019-04-26T12:12:11.551Z,1248.75
2019-04-26T12:13:08.452Z,1215.00
2019-04-26T12:14:19.596Z,1198.13
2019-04-26T12:15:08.458Z,1215.00
2019-04-26T12:16:09.859Z,1260.00
2019-04-26T12:17:07.819Z,1338.75
2019-04-26T12:18:09.904Z,1558.13
2019-04-26T12:19:07.848Z,2030.63
2019-04-26T12:20:07.817Z,1833.75
2019-04-26T12:21:07.824Z,1867.50
2019-04-26T12:22:08.670Z,1951.88
2019-04-26T12:23:07.840Z,4100.63
2019-04-26T12:24:07.850Z,4910.63
2019-04-26T12:25:08.295Z,4606.88
2019-04-26T12:26:07.867Z,3498.75
2019-04-26T12:27:10.179Z,1732.50
2019-04-26T12:28:07.945Z,1856.25
2019-04-26T12:29:10.570Z,4111.88
2019-04-26T12:30:07.901Z,1771.88
2019-04-26T12:31:07.912Z,2002.50
2019-04-26T12:32:07.949Z,1614.38